Time;durP1;ratioP1;P1;durP2;ratioP2;P2;SDS_P1;SDS_P2;PMS_P1;PMS_P2;Temp;Humidity;BMP_temperature;BMP_pressure;BME280_temperature;BME280_humidity;BME280_pressure;Samples;Min_cycle;Max_cycle;Signal;HPM_P1;HPM_P2
2022/11/02 00:01:52;;;;;;;42.40;25.80;;;;;;;11.38;83.78;100594.54;100814;1281;140358;-68
2022/11/02 00:04:23;;;;;;;43.40;26.00;;;;;;;11.36;83.73;100593.52;100930;1278;96673;-65
2022/11/02 00:06:53;;;;;;;40.60;26.10;;;;;;;11.37;83.79;100589.94;100870;1281;95280;-65
2022/11/02 00:09:24;;;;;;;40.10;27.00;;;;;;;11.36;83.69;100591.94;100857;1281;139243;-69
2022/11/02 00:11:55;;;;;;;41.50;26.70;;;;;;;11.37;83.68;100591.54;100911;1282;99575;-68
2022/11/02 00:14:25;;;;;;;42.00;26.70;;;;;;;11.40;83.66;100594.32;100838;1278;139462;-65
2022/11/02 00:16:56;;;;;;;46.00;27.70;;;;;;;11.42;83.57;100601.73;100911;1278;95664;-69
2022/11/02 00:19:27;;;;;;;43.80;27.50;;;;;;;11.43;83.68;100596.36;100767;1278;139911;-66
2022/11/02 00:22:00;;;;;;;42.90;28.50;;;;;;;11.43;83.54;100598.33;100924;1283;108777;-68
2022/11/02 00:24:33;;;;;;;43.90;27.40;;;;;;;11.41;83.32;100596.61;101031;1278;97909;-68
2022/11/02 00:27:04;;;;;;;44.80;28.80;;;;;;;11.37;83.33;100596.17;100908;1285;139326;-68
2022/11/02 00:29:35;;;;;;;44.30;28.40;;;;;;;11.37;83.52;100594.41;101128;1285;95261;-67
2022/11/02 00:32:06;;;;;;;43.40;27.90;;;;;;;11.38;83.76;100595.43;100884;1277;139671;-68
2022/11/02 00:34:38;;;;;;;43.00;26.80;;;;;;;11.40;83.60;100593.61;101541;1284;108812;-67
2022/11/02 00:37:08;;;;;;;44.40;27.20;;;;;;;11.41;83.62;100593.41;101337;1291;98583;-67
2022/11/02 00:39:39;;;;;;;45.00;27.60;;;;;;;11.43;83.62;100594.77;100865;1278;139911;-67
2022/11/02 00:42:10;;;;;;;43.60;27.20;;;;;;;11.44;83.49;100594.22;100979;1278;95282;-68
2022/11/02 00:44:41;;;;;;;44.60;28.20;;;;;;;11.45;83.50;100594.18;101227;1282;139176;-67
2022/11/02 00:47:12;;;;;;;44.20;27.60;;;;;;;11.48;83.47;100590.19;100799;1279;109200;-68
2022/11/02 00:49:43;;;;;;;45.40;28.20;;;;;;;11.47;83.36;100591.81;100983;1278;139785;-68
2022/11/02 00:52:14;;;;;;;44.40;27.40;;;;;;;11.50;83.49;100586.75;100948;1278;107662;-67
2022/11/02 00:54:48;;;;;;;43.30;27.50;;;;;;;11.53;83.29;100589.53;100922;1285;95607;-63
2022/11/02 00:57:20;;;;;;;44.10;27.90;;;;;;;11.51;83.12;100585.30;100846;1285;139536;-68
2022/11/02 00:59:51;;;;;;;45.10;27.60;;;;;;;11.50;83.33;100587.98;100889;1278;109045;-66
2022/11/02 01:02:22;;;;;;;44.70;27.10;;;;;;;11.54;83.36;100584.16;100796;1285;139668;-67
2022/11/02 01:04:54;;;;;;;42.40;26.70;;;;;;;11.55;83.15;100580.94;100893;1299;107963;-67
2022/11/02 01:07:27;;;;;;;46.40;28.30;;;;;;;11.54;83.30;100585.41;100812;1285;139904;-68
2022/11/02 01:09:57;;;;;;;42.00;26.20;;;;;;;11.51;83.14;100581.04;100991;1285;96167;-71
2022/11/02 01:12:28;;;;;;;43.80;27.40;;;;;;;11.48;83.24;100582.70;100924;1285;108935;-68
2022/11/02 01:14:59;;;;;;;43.30;26.70;;;;;;;11.50;83.63;100580.52;100733;1284;139263;-67
2022/11/02 01:17:29;;;;;;;46.30;26.80;;;;;;;11.55;83.43;100582.90;100858;1284;106901;-68
2022/11/02 01:20:00;;;;;;;48.00;27.50;;;;;;;11.56;83.67;100581.96;100846;1278;140046;-66
2022/11/02 01:22:31;;;;;;;47.20;27.30;;;;;;;11.59;83.46;100583.86;100891;1274;95234;-67
2022/11/02 01:25:02;;;;;;;46.70;27.70;;;;;;;11.60;83.20;100582.73;100768;1281;108272;-66
2022/11/02 01:27:32;;;;;;;45.60;26.70;;;;;;;11.60;83.21;100584.88;100633;1278;139441;-65
2022/11/02 01:30:04;;;;;;;49.50;27.90;;;;;;;11.61;83.38;100585.05;100570;1278;107205;-67
2022/11/02 01:32:34;;;;;;;46.20;27.40;;;;;;;11.63;83.32;100587.48;102990;1291;139260;-68
2022/11/02 01:35:06;;;;;;;49.30;28.10;;;;;;;11.62;83.17;100584.13;100769;1285;96165;-68
2022/11/02 01:37:37;;;;;;;48.10;27.30;;;;;;;11.60;83.12;100584.89;100807;1282;140106;-67
2022/11/02 01:40:10;;;;;;;51.30;29.50;;;;;;;11.60;83.21;100578.86;100873;1277;98497;-68
2022/11/02 01:42:41;;;;;;;50.40;27.70;;;;;;;11.60;83.31;100579.20;100934;1278;107438;-67
2022/11/02 01:45:15;;;;;;;53.70;30.00;;;;;;;11.64;83.49;100581.05;100766;1281;140331;-69
2022/11/02 01:47:48;;;;;;;54.00;29.80;;;;;;;11.67;83.38;100582.58;101119;1282;95574;-67
2022/11/02 01:50:21;;;;;;;59.00;30.20;;;;;;;11.68;83.33;100583.41;100808;1285;140282;-67
2022/11/02 01:52:52;;;;;;;56.90;30.70;;;;;;;11.70;83.19;100578.21;100749;1285;98011;-64
2022/11/02 01:55:28;;;;;;;59.70;30.40;;;;;;;11.69;83.17;100577.50;104222;1281;139911;-67
2022/11/02 01:58:02;;;;;;;60.90;31.40;;;;;;;11.67;83.37;100577.41;100784;1286;96040;-67
2022/11/02 02:00:36;;;;;;;60.70;32.40;;;;;;;11.70;83.49;100576.45;101388;1285;95210;-66
2022/11/02 02:03:10;;;;;;;64.60;31.70;;;;;;;11.73;83.40;100577.06;100893;1291;139307;-67
2022/11/02 02:05:44;;;;;;;66.60;33.50;;;;;;;11.75;83.30;100577.19;101248;1281;98537;-67
2022/11/02 02:08:22;;;;;;;66.70;33.40;;;;;;;11.77;83.37;100580.67;100975;1284;140276;-67
2022/11/02 02:10:57;;;;;;;69.60;34.80;;;;;;;11.79;83.29;100579.39;102076;1286;95274;-66
2022/11/02 02:13:29;;;;;;;71.80;35.20;;;;;;;11.79;83.46;100578.87;104902;1284;139147;-68
2022/11/02 02:16:09;;;;;;;70.80;34.80;;;;;;;11.79;83.53;100580.79;102251;1284;108058;-67
2022/11/02 02:18:45;;;;;;;81.20;37.10;;;;;;;11.78;83.38;100585.99;100765;1285;98701;-68
2022/11/02 02:21:30;;;;;;;77.00;35.60;;;;;;;11.74;83.56;100580.41;100627;1278;139095;-68
2022/11/02 02:24:27;;;;;;;82.60;38.10;;;;;;;11.77;83.71;100579.08;101930;1281;95289;-68
2022/11/02 02:27:11;;;;;;;82.40;38.20;;;;;;;11.81;83.88;100579.50;104897;1285;140356;-68
2022/11/02 02:29:53;;;;;;;85.70;38.60;;;;;;;11.84;83.73;100577.98;101502;1284;108333;-68
2022/11/02 02:32:31;;;;;;;88.70;40.00;;;;;;;11.87;83.69;100578.08;103872;1281;139578;-68
2022/11/02 02:35:11;;;;;;;85.70;37.80;;;;;;;11.86;83.63;100581.30;100758;1284;109190;-68
2022/11/02 02:37:51;;;;;;;91.30;40.10;;;;;;;11.82;83.79;100581.77;104898;1288;139818;-69
2022/11/02 02:40:27;;;;;;;89.00;39.10;;;;;;;11.85;83.88;100585.44;101234;1302;95165;-67
2022/11/02 02:43:05;;;;;;;82.20;38.00;;;;;;;11.86;84.01;100584.86;100671;1281;107807;-65
2022/11/02 02:45:44;;;;;;;85.30;38.20;;;;;;;11.89;83.95;100589.95;101162;1277;139632;-68
2022/11/02 02:48:18;;;;;;;88.80;40.10;;;;;;;11.88;83.94;100586.41;101000;1278;107546;-66
2022/11/02 02:50:51;;;;;;;90.70;40.00;;;;;;;11.87;84.09;100588.23;100663;1278;139906;-67
2022/11/02 02:53:29;;;;;;;85.60;39.20;;;;;;;11.85;84.14;100590.92;100881;1277;95374;-67
2022/11/02 02:56:02;;;;;;;87.80;41.00;;;;;;;11.83;84.23;100596.16;100796;1285;139195;-67
2022/11/02 02:58:40;;;;;;;93.50;41.20;;;;;;;11.78;84.65;100589.02;100923;1277;98791;-68
2022/11/02 03:01:14;;;;;;;88.50;41.60;;;;;;;11.78;84.90;100589.02;101402;1278;109522;-66
2022/11/02 03:03:47;;;;;;;94.00;42.20;;;;;;;11.81;85.03;100586.61;102718;1278;95358;-66
2022/11/02 03:06:23;;;;;;;90.90;41.90;;;;;;;11.85;85.20;100589.52;101054;1285;95240;-67
2022/11/02 03:09:05;;;;;;;93.80;41.80;;;;;;;11.88;84.93;100592.10;102337;1286;139830;-66
2022/11/02 03:11:45;;;;;;;95.00;43.10;;;;;;;11.88;84.95;100594.95;101035;1292;97319;-69
2022/11/02 03:14:32;;;;;;;97.00;43.80;;;;;;;11.88;85.13;100591.74;102055;1284;140065;-67
2022/11/02 03:17:16;;;;;;;96.30;43.20;;;;;;;11.90;85.44;100584.23;101113;1285;96156;-68
2022/11/02 03:19:57;;;;;;;101.20;44.10;;;;;;;11.96;85.35;100586.73;100886;1278;139597;-66
2022/11/02 03:22:34;;;;;;;96.10;43.30;;;;;;;12.01;85.17;100589.65;100871;1277;107787;-67
2022/11/02 03:25:14;;;;;;;100.20;44.00;;;;;;;12.02;85.16;100589.44;102956;1285;99036;-66
2022/11/02 03:27:55;;;;;;;97.10;42.80;;;;;;;12.02;85.34;100590.86;100880;1281;108156;-66
2022/11/02 03:30:30;;;;;;;103.20;44.00;;;;;;;12.05;85.49;100590.23;100971;1281;96697;-64
2022/11/02 03:33:07;;;;;;;96.80;43.70;;;;;;;12.06;85.24;100593.07;101006;1285;139600;-68
2022/11/02 03:35:47;;;;;;;109.80;45.00;;;;;;;12.05;85.35;100590.57;101194;1285;108956;-68
2022/11/02 03:38:23;;;;;;;114.40;47.00;;;;;;;12.02;85.52;100593.35;100862;1285;139550;-66
2022/11/02 03:40:56;;;;;;;114.50;46.80;;;;;;;12.00;85.88;100596.61;100962;1284;107683;-64
2022/11/02 03:43:28;;;;;;;110.20;45.90;;;;;;;12.02;85.97;100598.86;100993;1281;140690;-67
2022/11/02 03:46:03;;;;;;;121.00;48.30;;;;;;;12.02;86.04;100602.96;100945;1281;95599;-67
2022/11/02 03:48:40;;;;;;;113.20;47.10;;;;;;;12.03;86.13;100608.98;101185;1285;108854;-68
2022/11/02 03:51:19;;;;;;;118.10;47.80;;;;;;;12.03;86.16;100606.13;100818;1281;141442;-66
2022/11/02 03:53:57;;;;;;;118.00;50.40;;;;;;;12.02;86.27;100601.88;100823;1284;108165;-66
2022/11/02 03:56:35;;;;;;;114.40;50.20;;;;;;;12.02;86.40;100610.59;101036;1308;142083;-67
2022/11/02 03:59:06;;;;;;;118.30;48.80;;;;;;;12.07;86.64;100610.83;101306;1284;96824;-66
2022/11/02 04:01:42;;;;;;;121.80;51.00;;;;;;;12.09;86.38;100613.78;100664;1278;139520;-66
2022/11/02 04:04:14;;;;;;;119.30;49.00;;;;;;;12.07;86.41;100610.46;101007;1285;97633;-66
2022/11/02 04:06:47;;;;;;;122.60;50.80;;;;;;;12.06;86.53;100618.30;100860;1281;108253;-65
2022/11/02 04:09:18;;;;;;;119.40;50.60;;;;;;;12.06;86.60;100616.55;101033;1281;139827;-66
2022/11/02 04:14:37;;;;;;;123.50;50.90;;;;;;;12.08;86.68;100618.27;100754;1285;139427;-67
2022/11/02 04:20:04;;;;;;;116.20;50.30;;;;;;;12.04;86.95;100622.65;100697;1278;139493;-66
2022/11/02 04:25:24;;;;;;;117.90;51.40;;;;;;;12.08;87.06;100623.07;100723;1277;139623;-67
2022/11/02 04:28:10;;;;;;;120.20;50.50;;;;;;;12.10;87.04;100623.72;100996;1281;109500;-67
2022/11/02 04:30:48;;;;;;;116.10;51.50;;;;;;;12.10;87.07;100622.84;100909;1285;98429;-66
2022/11/02 04:33:33;;;;;;;120.70;50.30;;;;;;;12.11;86.98;100621.92;100707;1286;139519;-65
2022/11/02 04:36:18;;;;;;;117.90;51.60;;;;;;;12.10;87.18;100623.55;100865;1285;95237;-66
2022/11/02 04:38:53;;;;;;;116.90;50.90;;;;;;;12.10;87.30;100627.81;100841;1285;139655;-67
2022/11/02 04:41:44;;;;;;;113.20;49.10;;;;;;;12.13;87.31;100626.30;100858;1278;108882;-67
2022/11/02 04:44:24;;;;;;;110.30;49.00;;;;;;;12.16;87.40;100627.11;100847;1281;139789;-68
2022/11/02 04:47:04;;;;;;;113.90;49.50;;;;;;;12.19;87.25;100625.39;100813;1277;107811;-66
2022/11/02 04:49:36;;;;;;;117.30;48.60;;;;;;;12.21;87.28;100622.34;100679;1278;139804;-66
2022/11/02 04:52:09;;;;;;;107.80;49.30;;;;;;;12.19;87.12;100624.34;100805;1285;95559;-66
2022/11/02 04:54:42;;;;;;;115.00;50.10;;;;;;;12.18;87.40;100622.23;101245;1277;109111;-67
2022/11/02 04:57:13;;;;;;;110.30;49.00;;;;;;;12.19;87.26;100622.58;100929;1285;139459;-65
2022/11/02 04:59:45;;;;;;;111.40;49.10;;;;;;;12.20;87.43;100623.80;100917;1281;138170;-66
2022/11/02 05:02:16;;;;;;;113.40;49.80;;;;;;;12.19;87.36;100626.64;100921;1285;139584;-66
2022/11/02 05:04:48;;;;;;;118.20;50.30;;;;;;;12.20;87.50;100627.16;100965;1281;95324;-65
2022/11/02 05:07:19;;;;;;;109.00;49.20;;;;;;;12.20;87.65;100630.36;100915;1283;108357;-66
2022/11/02 05:09:50;;;;;;;110.70;48.80;;;;;;;12.22;87.51;100629.06;100989;1282;98095;-65
2022/11/02 05:12:21;;;;;;;113.40;51.70;;;;;;;12.21;87.69;100634.96;100852;1284;109723;-65
2022/11/02 05:14:58;;;;;;;110.90;48.00;;;;;;;12.22;87.68;100634.95;100906;1282;139894;-66
2022/11/02 05:17:29;;;;;;;111.60;49.80;;;;;;;12.21;87.72;100639.80;100848;1282;95228;-67
2022/11/02 05:20:00;;;;;;;107.50;48.60;;;;;;;12.19;87.81;100642.86;100890;1275;139730;-66
2022/11/02 05:22:32;;;;;;;108.90;49.30;;;;;;;12.20;88.02;100643.21;100853;1282;97647;-66
2022/11/02 05:25:03;;;;;;;108.90;50.50;;;;;;;12.21;88.08;100645.29;100980;1281;108365;-66
2022/11/02 05:27:35;;;;;;;109.20;49.00;;;;;;;12.23;87.87;100647.38;100905;1283;140382;-67
2022/11/02 05:30:08;;;;;;;112.40;50.50;;;;;;;12.24;87.96;100646.66;100923;1282;95243;-67
2022/11/02 05:32:38;;;;;;;108.50;50.10;;;;;;;12.25;88.17;100648.04;101168;1281;141273;-66
2022/11/02 05:35:10;;;;;;;110.00;50.50;;;;;;;12.27;88.27;100652.61;101011;1278;98158;-67
2022/11/02 05:37:41;;;;;;;109.60;50.20;;;;;;;12.26;88.02;100654.06;101094;1283;140375;-66
2022/11/02 05:40:13;;;;;;;108.90;50.30;;;;;;;12.25;88.33;100660.14;101135;1283;96871;-63
2022/11/02 05:42:44;;;;;;;106.40;50.30;;;;;;;12.26;88.48;100660.48;100980;1286;95766;-66
2022/11/02 05:45:15;;;;;;;123.00;54.50;;;;;;;12.27;88.47;100663.48;100899;1286;139922;-67
2022/11/02 05:47:54;;;;;;;108.10;49.00;;;;;;;12.26;88.53;100664.58;101005;1302;98567;-67
2022/11/02 05:50:24;;;;;;;109.30;49.30;;;;;;;12.25;88.79;100667.63;100968;1281;139189;-65
2022/11/02 05:52:55;;;;;;;108.40;48.70;;;;;;;12.26;88.92;100671.70;100988;1282;95959;-66
2022/11/02 05:55:26;;;;;;;100.70;46.30;;;;;;;12.28;88.96;100676.80;100882;1283;139858;-67
2022/11/02 05:57:57;;;;;;;102.50;47.40;;;;;;;12.29;88.96;100678.53;100966;1282;108170;-66
2022/11/02 06:00:28;;;;;;;99.40;46.40;;;;;;;12.31;88.91;100678.29;101101;1291;99322;-67
2022/11/02 06:02:59;;;;;;;97.70;46.50;;;;;;;12.34;88.84;100679.45;100931;1281;139147;-66
2022/11/02 06:05:30;;;;;;;103.80;47.30;;;;;;;12.36;88.90;100677.44;101087;1274;95817;-66
2022/11/02 06:08:02;;;;;;;97.60;45.00;;;;;;;12.37;88.84;100677.75;100921;1281;139536;-67
2022/11/02 06:10:33;;;;;;;96.00;45.80;;;;;;;12.39;88.87;100678.43;101035;1286;108830;-67
2022/11/02 06:13:04;;;;;;;103.20;45.50;;;;;;;12.42;88.85;100684.20;101026;1284;98442;-67
2022/11/02 06:15:35;;;;;;;94.80;45.30;;;;;;;12.42;88.88;100691.68;100942;1281;139979;-68
2022/11/02 06:18:09;;;;;;;93.60;45.10;;;;;;;12.45;88.84;100689.30;100946;1274;95234;-69
2022/11/02 06:20:39;;;;;;;98.90;46.00;;;;;;;12.45;88.83;100698.37;100935;1283;139880;-68
2022/11/02 06:23:13;;;;;;;99.20;46.80;;;;;;;12.48;88.87;100698.98;101035;1275;108849;-69
2022/11/02 06:25:44;;;;;;;102.90;45.10;;;;;;;12.50;88.82;100699.81;100936;1289;139489;-69
2022/11/02 06:28:15;;;;;;;94.70;44.40;;;;;;;12.51;88.62;100708.53;100910;1286;107928;-68
2022/11/02 06:30:46;;;;;;;94.20;43.80;;;;;;;12.51;88.66;100708.52;101039;1281;95261;-70
2022/11/02 06:33:17;;;;;;;94.50;42.50;;;;;;;12.52;88.58;100705.98;100949;1287;139308;-70
2022/11/02 06:35:50;;;;;;;84.20;39.90;;;;;;;12.54;88.65;100710.20;101108;1289;109253;-68
2022/11/02 06:38:21;;;;;;;81.80;39.30;;;;;;;12.55;88.49;100710.20;101080;1305;139981;-69
2022/11/02 06:41:02;;;;;;;83.60;39.30;;;;;;;12.59;88.58;100712.23;101052;1291;107138;-67
2022/11/02 06:43:36;;;;;;;75.30;37.30;;;;;;;12.59;88.33;100710.25;101156;1282;140077;-68
2022/11/02 06:46:08;;;;;;;74.40;36.50;;;;;;;12.61;88.36;100715.17;101128;1307;95252;-71
2022/11/02 06:48:39;;;;;;;77.10;36.20;;;;;;;12.61;88.06;100716.80;101139;1286;107619;-69
2022/11/02 06:51:09;;;;;;;74.90;36.70;;;;;;;12.61;88.14;100716.61;100943;1275;139245;-69
2022/11/02 06:53:40;;;;;;;74.20;35.90;;;;;;;12.66;88.18;100714.13;100990;1285;108246;-68
2022/11/02 06:56:12;;;;;;;69.30;34.30;;;;;;;12.69;88.13;100713.90;100926;1299;140008;-68
2022/11/02 06:58:42;;;;;;;68.90;34.30;;;;;;;12.74;87.90;100716.41;101455;1281;95578;-70
2022/11/02 07:01:14;;;;;;;61.40;31.30;;;;;;;12.77;87.66;100716.14;101020;1281;108615;-70
2022/11/02 07:03:45;;;;;;;63.50;31.20;;;;;;;12.77;87.21;100715.95;101113;1281;98741;-70
2022/11/02 07:06:16;;;;;;;58.90;30.10;;;;;;;12.77;87.10;100716.86;100937;1281;105861;-69
2022/11/02 07:08:46;;;;;;;57.00;29.60;;;;;;;12.77;87.03;100717.40;100962;1282;139941;-70
2022/11/02 07:11:17;;;;;;;59.50;29.70;;;;;;;12.80;87.14;100717.45;101092;1281;95242;-69
2022/11/02 07:13:48;;;;;;;57.60;29.30;;;;;;;12.83;87.12;100717.00;100959;1281;139261;-67
2022/11/02 07:16:18;;;;;;;59.20;30.40;;;;;;;12.87;86.79;100720.27;101074;1285;98593;-69
2022/11/02 07:18:49;;;;;;;59.00;30.50;;;;;;;12.91;86.89;100726.59;101024;1285;108025;-68
2022/11/02 07:21:20;;;;;;;57.70;30.30;;;;;;;12.95;86.67;100729.48;100865;1281;139288;-69
2022/11/02 07:23:51;;;;;;;56.30;29.60;;;;;;;12.98;86.58;100726.70;101098;1285;95253;-65
2022/11/02 07:26:23;;;;;;;59.30;29.30;;;;;;;13.02;86.44;100729.27;100988;1281;139510;-68
2022/11/02 07:28:53;;;;;;;50.20;28.30;;;;;;;13.08;86.38;100731.40;101058;1281;98582;-68
2022/11/02 07:31:31;;;;;;;49.40;26.90;;;;;;;13.11;86.07;100726.32;100944;1283;140222;-69
2022/11/02 07:34:01;;;;;;;51.40;27.80;;;;;;;13.17;85.98;100724.15;101005;1281;95243;-69
2022/11/02 07:36:32;;;;;;;52.80;28.50;;;;;;;13.24;85.53;100724.48;101006;1281;95274;-70
2022/11/02 07:39:04;;;;;;;52.30;27.80;;;;;;;13.26;85.23;100723.73;100957;1281;139724;-69
2022/11/02 07:41:35;;;;;;;52.90;28.40;;;;;;;13.30;84.92;100724.47;101089;1281;97945;-69
2022/11/02 07:44:06;;;;;;;53.50;28.50;;;;;;;13.34;84.85;100726.11;101363;1288;139140;-70
2022/11/02 07:46:55;;;;;;;53.50;27.70;;;;;;;13.41;84.58;100727.73;101068;1281;96130;-69
2022/11/02 07:49:26;;;;;;;49.00;27.70;;;;;;;13.48;84.60;100725.86;100940;1281;139112;-69
2022/11/02 07:51:57;;;;;;;50.60;28.90;;;;;;;13.58;84.50;100723.23;101124;1281;111864;-69
2022/11/02 07:54:28;;;;;;;53.00;28.20;;;;;;;13.66;84.33;100722.06;101004;1281;98993;-69
2022/11/02 07:56:59;;;;;;;50.70;27.90;;;;;;;13.76;84.44;100720.31;100839;1281;140530;-70
2022/11/02 07:59:29;;;;;;;48.00;27.00;;;;;;;13.83;83.81;100722.55;100958;1281;96061;-70
2022/11/02 08:02:00;;;;;;;47.80;27.00;;;;;;;13.90;83.73;100724.98;100882;1281;95894;-70
2022/11/02 08:04:31;;;;;;;49.50;28.50;;;;;;;13.97;83.38;100727.58;100980;1283;108545;-68
2022/11/02 08:07:01;;;;;;;44.40;26.30;;;;;;;14.02;82.71;100728.15;101108;1288;98393;-65
2022/11/02 08:09:32;;;;;;;45.70;26.60;;;;;;;14.03;82.43;100727.02;100987;1281;110209;-70
2022/11/02 08:12:03;;;;;;;49.30;27.40;;;;;;;14.09;82.35;100726.82;100842;1281;95331;-67
2022/11/02 08:14:34;;;;;;;49.90;27.90;;;;;;;14.15;82.13;100729.46;101103;1281;95336;-72
2022/11/02 08:17:05;;;;;;;51.00;30.10;;;;;;;14.14;82.06;100728.09;101117;1284;109422;-70
2022/11/02 08:19:35;;;;;;;48.00;29.30;;;;;;;14.09;81.91;100729.70;100975;1282;99074;-65
2022/11/02 08:22:06;;;;;;;50.30;30.70;;;;;;;14.10;82.36;100720.88;100941;1280;108524;-70
2022/11/02 08:24:37;;;;;;;49.40;28.90;;;;;;;14.11;81.43;100724.43;100922;1281;95594;-70
2022/11/02 08:27:07;;;;;;;45.10;28.90;;;;;;;14.09;81.23;100722.89;100984;1288;95741;-67
2022/11/02 08:29:38;;;;;;;46.10;29.10;;;;;;;14.06;80.83;100722.48;100869;1288;109257;-69
2022/11/02 08:32:09;;;;;;;46.30;30.20;;;;;;;14.08;81.07;100721.51;100956;1288;98395;-69
2022/11/02 08:34:39;;;;;;;47.50;30.70;;;;;;;14.15;80.93;100717.50;100945;1284;107998;-69
2022/11/02 08:37:10;;;;;;;45.60;29.70;;;;;;;14.21;81.00;100711.93;100829;1291;95656;-68
2022/11/02 08:39:41;;;;;;;46.40;30.40;;;;;;;14.25;80.85;100709.64;100841;1296;95234;-67
2022/11/02 08:42:12;;;;;;;46.30;29.90;;;;;;;14.28;80.57;100710.44;101544;1288;108907;-69
2022/11/02 08:44:42;;;;;;;45.30;29.70;;;;;;;14.25;79.93;100712.14;101064;1281;98556;-68
2022/11/02 08:47:14;;;;;;;46.90;29.90;;;;;;;14.24;80.10;100717.00;101064;1281;107789;-70
2022/11/02 08:49:46;;;;;;;48.30;30.90;;;;;;;14.25;80.22;100720.36;101023;1288;96054;-71
2022/11/02 08:52:16;;;;;;;44.70;30.30;;;;;;;14.19;79.32;100724.86;101145;1281;95270;-70
2022/11/02 08:54:47;;;;;;;44.60;29.20;;;;;;;14.14;79.36;100723.63;101113;1285;109909;-70
2022/11/02 08:57:18;;;;;;;43.00;28.90;;;;;;;14.08;79.20;100724.34;101102;1305;98667;-71
2022/11/02 08:59:49;;;;;;;43.00;28.80;;;;;;;14.10;79.32;100726.42;101049;1283;108037;-69
2022/11/02 09:02:19;;;;;;;41.10;28.10;;;;;;;14.12;79.44;100725.12;101195;1281;95650;-69
2022/11/02 09:04:50;;;;;;;40.40;27.60;;;;;;;14.15;79.87;100729.30;101083;1283;96658;-69
2022/11/02 09:07:21;;;;;;;36.90;25.20;;;;;;;14.15;79.11;100725.89;101109;1286;108614;-69
2022/11/02 09:09:52;;;;;;;38.90;25.20;;;;;;;14.15;78.95;100723.21;101077;1283;98391;-71
2022/11/02 09:12:23;;;;;;;38.10;25.00;;;;;;;14.11;78.70;100721.22;101054;1281;108044;-71
2022/11/02 09:14:53;;;;;;;36.60;24.20;;;;;;;14.08;78.86;100722.41;101077;1293;95191;-69
2022/11/02 09:17:24;;;;;;;36.60;24.10;;;;;;;14.13;79.25;100716.17;101082;1282;95278;-70
2022/11/02 09:19:55;;;;;;;35.70;24.20;;;;;;;14.14;78.93;100713.95;101032;1283;109142;-70
2022/11/02 09:22:26;;;;;;;37.40;23.60;;;;;;;14.19;78.86;100706.28;101063;1281;98938;-71
2022/11/02 09:24:57;;;;;;;38.20;24.10;;;;;;;14.28;79.12;100700.77;101055;1283;108045;-70
2022/11/02 09:27:28;;;;;;;35.90;23.00;;;;;;;14.37;78.75;100702.42;101078;1289;95264;-69
2022/11/02 09:29:58;;;;;;;35.30;22.30;;;;;;;14.37;78.67;100709.55;101071;1281;95249;-68
2022/11/02 09:32:32;;;;;;;35.80;21.80;;;;;;;14.34;78.12;100715.58;101065;1281;111145;-70
2022/11/02 09:35:06;;;;;;;35.80;22.60;;;;;;;14.31;78.18;100713.54;101136;1283;98603;-70
2022/11/02 09:37:37;;;;;;;36.30;22.60;;;;;;;14.25;78.08;100708.73;101119;1281;106610;-71
2022/11/02 09:40:10;;;;;;;35.50;22.10;;;;;;;14.25;78.21;100712.14;101088;1283;95686;-72
2022/11/02 09:42:53;;;;;;;35.30;21.90;;;;;;;14.23;78.12;100718.83;101162;1282;95674;-70
2022/11/02 09:45:25;;;;;;;36.70;23.30;;;;;;;14.18;78.18;100717.73;101089;1283;108600;-71
2022/11/02 09:48:01;;;;;;;35.60;21.80;;;;;;;14.14;78.47;100721.09;101290;1284;99208;-71
2022/11/02 09:50:58;;;;;;;34.40;21.20;;;;;;;14.13;78.83;100723.11;101052;1295;108167;-71
2022/11/02 09:53:39;;;;;;;37.50;23.00;;;;;;;14.12;79.17;100720.84;101131;1282;95165;-70
2022/11/02 09:56:13;;;;;;;39.30;23.00;;;;;;;14.14;79.56;100723.08;101084;1281;95479;-67
2022/11/02 09:58:46;;;;;;;36.40;22.30;;;;;;;14.17;79.49;100724.39;101040;1285;109052;-68
2022/11/02 10:01:34;;;;;;;37.00;22.60;;;;;;;14.20;79.29;100723.93;100936;1281;99031;-68
2022/11/02 10:04:38;;;;;;;34.10;21.60;;;;;;;14.20;79.18;100723.77;101032;1285;106780;-68
2022/11/02 10:07:16;;;;;;;34.90;21.90;;;;;;;14.22;79.20;100719.92;100757;1285;96082;-69
2022/11/02 10:09:54;;;;;;;38.20;22.30;;;;;;;14.22;79.24;100724.20;101051;1283;95640;-68
2022/11/02 10:12:31;;;;;;;37.50;22.40;;;;;;;14.22;79.15;100721.88;101113;1279;108981;-69
2022/11/02 10:15:08;;;;;;;36.80;23.50;;;;;;;14.21;79.28;100725.49;101053;1277;98669;-67
2022/11/02 10:17:42;;;;;;;36.50;22.60;;;;;;;14.23;79.38;100718.48;101208;1281;107414;-69
2022/11/02 10:20:25;;;;;;;39.90;22.70;;;;;;;14.27;79.51;100720.30;101175;1283;95289;-69
2022/11/02 10:22:59;;;;;;;36.50;22.80;;;;;;;14.29;79.23;100716.98;101366;1289;95249;-69
2022/11/02 10:25:30;;;;;;;40.00;23.60;;;;;;;14.30;79.19;100717.15;101271;1281;108803;-68
2022/11/02 10:28:05;;;;;;;36.80;22.50;;;;;;;14.31;79.03;100717.48;101066;1283;99167;-69
2022/11/02 10:30:37;;;;;;;37.00;22.60;;;;;;;14.34;79.19;100712.16;101264;1283;107284;-66
2022/11/02 10:33:13;;;;;;;36.10;22.90;;;;;;;14.36;79.07;100712.98;101123;1286;96773;-67
2022/11/02 10:35:55;;;;;;;35.80;21.70;;;;;;;14.38;78.77;100711.66;101167;1281;95680;-65
2022/11/02 10:39:01;;;;;;;32.70;21.00;;;;;;;14.38;78.56;100716.47;101080;1282;108576;-66
2022/11/02 10:41:51;;;;;;;33.60;20.20;;;;;;;14.38;78.68;100714.71;101309;1288;99291;-63
2022/11/02 10:44:46;;;;;;;29.90;18.60;;;;;;;14.42;78.48;100719.05;101341;1300;107461;-65
2022/11/02 10:47:19;;;;;;;30.30;19.80;;;;;;;14.47;78.57;100715.79;101193;1275;95281;-66
2022/11/02 10:50:08;;;;;;;31.40;19.20;;;;;;;14.54;78.78;100719.48;101146;1275;96172;-67
2022/11/02 10:52:44;;;;;;;30.20;18.90;;;;;;;14.62;78.25;100721.52;101092;1284;108718;-66
2022/11/02 10:55:24;;;;;;;29.10;19.00;;;;;;;14.65;77.92;100726.09;101110;1275;98825;-67
2022/11/02 10:57:58;;;;;;;27.80;18.70;;;;;;;14.67;77.92;100727.05;101114;1281;108638;-64
2022/11/02 11:00:34;;;;;;;28.10;18.60;;;;;;;14.67;77.24;100724.89;101093;1283;95748;-64
2022/11/02 11:03:10;;;;;;;28.20;18.10;;;;;;;14.69;77.43;100725.53;101290;1292;95691;-66
2022/11/02 11:05:59;;;;;;;28.40;18.70;;;;;;;14.72;77.29;100727.06;101232;1283;108362;-67
2022/11/02 11:08:38;;;;;;;26.90;19.00;;;;;;;14.72;76.80;100727.05;101303;1285;140180;-66
2022/11/02 11:11:14;;;;;;;28.00;19.20;;;;;;;14.77;77.40;100723.98;101106;1285;107432;-67
2022/11/02 11:13:54;;;;;;;27.30;18.40;;;;;;;14.84;76.62;100728.73;101014;1283;95258;-67
2022/11/02 11:16:47;;;;;;;26.90;17.40;;;;;;;14.86;76.35;100724.71;101044;1283;96131;-66
2022/11/02 11:19:26;;;;;;;24.70;16.00;;;;;;;14.88;75.82;100726.27;101138;1285;108653;-67
2022/11/02 11:22:32;;;;;;;23.30;15.30;;;;;;;14.90;75.63;100724.56;100854;1292;139338;-67
2022/11/02 11:25:23;;;;;;;24.30;16.20;;;;;;;14.92;75.09;100724.13;101068;1281;107213;-66
2022/11/02 11:27:59;;;;;;;24.10;17.10;;;;;;;14.94;74.22;100717.99;100930;1281;139835;-65
2022/11/02 11:30:32;;;;;;;23.90;17.10;;;;;;;14.96;73.60;100716.10;101187;1286;95234;-66
2022/11/02 11:33:23;;;;;;;22.30;15.00;;;;;;;14.98;73.77;100715.30;101241;1281;140357;-65
2022/11/02 11:35:54;;;;;;;20.20;14.30;;;;;;;15.04;73.84;100712.91;100714;1281;97553;-65